createdAt,value
2022-12-05T00:01:44.801Z,32.20
2022-12-05T00:04:14.199Z,27.40
2022-12-05T00:06:42.933Z,25.13
2022-12-05T00:09:11.905Z,29.90
2022-12-05T00:11:42.749Z,29.10
2022-12-05T00:14:11.360Z,32.70
2022-12-05T00:16:42.203Z,27.77
2022-12-05T00:19:12.620Z,29.42
2022-12-05T00:21:40.285Z,28.52
2022-12-05T00:24:09.492Z,38.30
2022-12-05T00:26:37.283Z,27.27
2022-12-05T00:29:05.184Z,30.98
2022-12-05T00:31:33.098Z,27.33
2022-12-05T00:34:03.472Z,26.77
2022-12-05T00:36:34.292Z,26.90
2022-12-05T00:39:04.794Z,30.45
2022-12-05T00:41:32.444Z,28.17
2022-12-05T00:44:01.893Z,27.17
2022-12-05T00:46:31.212Z,29.70
2022-12-05T00:49:00.602Z,32.92
2022-12-05T00:51:31.970Z,30.58
2022-12-05T00:54:00.516Z,34.38
2022-12-05T00:56:29.725Z,25.65
2022-12-05T00:58:58.868Z,29.98
2022-12-05T01:01:28.461Z,24.98
2022-12-05T01:03:57.864Z,31.50
2022-12-05T01:06:28.380Z,29.05
2022-12-05T01:08:58.276Z,32.72
2022-12-05T01:11:27.232Z,32.72
2022-12-05T01:13:55.844Z,28.80
2022-12-05T01:16:25.962Z,26.60
2022-12-05T01:18:54.068Z,26.65
2022-12-05T01:21:22.167Z,30.30
2022-12-05T01:23:50.661Z,29.52
2022-12-05T01:26:21.955Z,23.80
2022-12-05T01:28:50.060Z,29.90
2022-12-05T01:31:22.775Z,27.83
2022-12-05T01:33:50.591Z,22.88
2022-12-05T01:36:19.093Z,28.33
2022-12-05T01:38:49.358Z,25.95
2022-12-05T01:41:21.715Z,31.77
2022-12-05T01:43:58.405Z,31.05
2022-12-05T01:46:26.825Z,33.42
2022-12-05T01:48:58.989Z,33.67
2022-12-05T01:51:26.789Z,28.05
2022-12-05T01:53:56.635Z,28.50
2022-12-05T01:56:25.538Z,28.98
2022-12-05T01:58:54.484Z,27.83
2022-12-05T02:01:22.286Z,28.95
2022-12-05T02:03:53.414Z,33.25
2022-12-05T02:06:21.627Z,26.77
2022-12-05T02:08:50.295Z,28.25
2022-12-05T02:11:17.888Z,27.02
2022-12-05T02:14:16.049Z,26.92
2022-12-05T02:16:59.446Z,29.50
2022-12-05T02:19:53.775Z,25.95
2022-12-05T02:22:47.259Z,24.75
2022-12-05T02:25:27.028Z,27.90
2022-12-05T02:28:19.553Z,29.58
2022-12-05T02:30:55.490Z,23.42
2022-12-05T02:33:29.315Z,26.20
2022-12-05T02:36:05.692Z,26.63
2022-12-05T02:38:40.293Z,26.33
2022-12-05T02:41:17.109Z,26.05
2022-12-05T02:43:51.038Z,30.80
2022-12-05T02:46:22.944Z,29.25
2022-12-05T02:48:55.185Z,23.23
2022-12-05T02:51:26.947Z,27.20
2022-12-05T02:53:58.636Z,30.52
2022-12-05T02:56:27.627Z,32.58
2022-12-05T02:58:56.454Z,24.00
2022-12-05T03:01:30.077Z,26.27
2022-12-05T03:04:00.650Z,25.20
2022-12-05T03:06:31.292Z,25.08
2022-12-05T03:09:03.704Z,26.10
2022-12-05T03:11:35.988Z,29.15
2022-12-05T03:14:07.260Z,30.58
2022-12-05T03:16:42.401Z,32.08
2022-12-05T03:19:14.836Z,25.55
2022-12-05T03:21:50.956Z,31.08
2022-12-05T03:24:18.643Z,25.52
2022-12-05T03:26:54.432Z,27.40
2022-12-05T03:29:29.700Z,24.05
2022-12-05T03:32:07.888Z,32.97
2022-12-05T03:34:47.733Z,26.05
2022-12-05T03:37:21.212Z,24.70
2022-12-05T03:39:55.724Z,23.77
2022-12-05T03:42:31.897Z,23.23
2022-12-05T03:45:04.188Z,25.35
2022-12-05T03:47:40.719Z,24.75
2022-12-05T03:50:13.352Z,24.13
2022-12-05T03:53:18.062Z,24.35
2022-12-05T03:55:37.330Z,27.85
2022-12-05T03:58:09.899Z,23.13
2022-12-05T04:00:41.911Z,24.73
2022-12-05T04:03:15.326Z,26.10
2022-12-05T04:05:46.383Z,29.67
2022-12-05T04:08:20.673Z,25.73
2022-12-05T04:10:51.522Z,25.00
2022-12-05T04:13:22.426Z,23.17
2022-12-05T04:16:12.690Z,25.92
2022-12-05T04:18:48.598Z,21.70
2022-12-05T04:21:36.984Z,25.33
2022-12-05T04:24:22.824Z,24.25
2022-12-05T04:29:29.658Z,25.27
2022-12-05T04:32:02.040Z,25.25
2022-12-05T04:34:33.192Z,22.95
2022-12-05T04:37:05.960Z,23.70
2022-12-05T04:39:41.045Z,24.05
2022-12-05T04:42:11.039Z,21.17
2022-12-05T04:44:43.507Z,24.20
2022-12-05T04:47:14.784Z,21.05
2022-12-05T04:49:49.331Z,26.67
2022-12-05T04:52:22.077Z,22.88
2022-12-05T04:54:54.106Z,24.30
2022-12-05T04:57:25.747Z,25.08
2022-12-05T04:59:53.592Z,23.48
2022-12-05T05:02:30.102Z,23.15
2022-12-05T05:05:01.253Z,25.95
2022-12-05T05:07:29.248Z,21.45
2022-12-05T05:09:57.904Z,25.20
2022-12-05T05:12:25.523Z,22.45
2022-12-05T05:14:53.076Z,27.63
2022-12-05T05:17:20.560Z,28.00
2022-12-05T05:19:48.281Z,22.48
2022-12-05T05:22:17.084Z,21.75
2022-12-05T05:24:44.534Z,24.17
2022-12-05T05:27:11.979Z,24.25
2022-12-05T05:29:39.552Z,22.10
2022-12-05T05:32:07.052Z,22.73
2022-12-05T05:34:34.623Z,23.45
2022-12-05T05:37:02.042Z,25.75
2022-12-05T05:39:30.871Z,24.30
2022-12-05T05:41:58.319Z,25.08
2022-12-05T05:44:25.788Z,25.38
2022-12-05T05:46:53.333Z,22.20
2022-12-05T05:49:20.803Z,24.88
2022-12-05T05:51:48.266Z,21.70
2022-12-05T05:54:15.733Z,23.00
2022-12-05T05:56:44.535Z,22.90
2022-12-05T05:59:12.205Z,25.40
2022-12-05T06:01:39.699Z,29.77
2022-12-05T06:04:07.714Z,24.75
2022-12-05T06:06:35.540Z,20.63
2022-12-05T06:09:02.976Z,17.50
2022-12-05T06:11:30.722Z,22.25
2022-12-05T06:14:01.997Z,24.65
2022-12-05T06:16:30.160Z,17.70
2022-12-05T06:18:58.291Z,20.92
2022-12-05T06:21:25.850Z,20.02
2022-12-05T06:23:53.904Z,21.83
2022-12-05T06:26:22.753Z,20.17
2022-12-05T06:28:50.654Z,23.75
2022-12-05T06:31:21.558Z,23.92
2022-12-05T06:33:49.618Z,17.65
2022-12-05T06:36:20.777Z,20.70
2022-12-05T06:38:48.768Z,21.67
2022-12-05T06:41:19.142Z,20.13
2022-12-05T06:43:46.926Z,20.85
2022-12-05T06:46:15.902Z,23.90
2022-12-05T06:48:44.863Z,22.48
2022-12-05T06:51:13.943Z,22.90
2022-12-05T06:53:42.010Z,25.13
2022-12-05T06:56:13.537Z,19.83
2022-12-05T06:58:41.289Z,20.52
2022-12-05T07:01:35.572Z,23.17
2022-12-05T07:04:05.609Z,21.23
2022-12-05T07:06:33.879Z,18.20
2022-12-05T07:09:01.438Z,20.80
2022-12-05T07:11:28.976Z,19.23
2022-12-05T07:13:56.930Z,21.63
2022-12-05T07:16:24.824Z,21.05
2022-12-05T07:18:52.303Z,20.13
2022-12-05T07:21:21.944Z,18.17
2022-12-05T07:23:51.007Z,18.00
2022-12-05T07:26:21.416Z,19.73
2022-12-05T07:28:49.608Z,17.95
2022-12-05T07:31:18.784Z,18.42
2022-12-05T07:33:46.572Z,22.77
2022-12-05T07:36:16.443Z,18.13
2022-12-05T07:38:45.829Z,17.70
2022-12-05T07:41:17.994Z,17.90
2022-12-05T07:43:45.484Z,19.35
2022-12-05T07:46:13.037Z,16.45
2022-12-05T07:48:41.066Z,16.33
2022-12-05T07:51:10.680Z,19.70
2022-12-05T07:53:39.369Z,16.70
2022-12-05T07:56:10.093Z,17.70
2022-12-05T07:58:38.264Z,19.58
2022-12-05T08:01:10.441Z,16.02
2022-12-05T08:03:38.739Z,16.73
2022-12-05T08:06:08.611Z,18.42
2022-12-05T08:08:36.592Z,16.60
2022-12-05T08:11:05.526Z,21.85
2022-12-05T08:13:34.424Z,15.25
2022-12-05T08:16:03.406Z,17.23
2022-12-05T08:18:30.919Z,15.30
2022-12-05T08:21:03.075Z,20.45
2022-12-05T08:23:31.599Z,15.85
2022-12-05T08:26:03.904Z,15.40
2022-12-05T08:28:32.063Z,15.27
2022-12-05T08:31:05.953Z,15.88
2022-12-05T08:33:33.525Z,13.88
2022-12-05T08:36:04.796Z,14.85
2022-12-05T08:38:32.968Z,13.88
2022-12-05T08:41:02.145Z,15.00
2022-12-05T08:43:29.936Z,12.07
2022-12-05T08:45:57.674Z,16.90
2022-12-05T08:48:29.457Z,13.70
2022-12-05T08:50:57.868Z,14.90
2022-12-05T08:53:25.523Z,14.65
2022-12-05T08:55:55.157Z,19.10
2022-12-05T08:58:22.634Z,18.38
2022-12-05T09:00:50.116Z,14.85
2022-12-05T09:03:17.578Z,10.63
2022-12-05T09:05:46.379Z,12.23
2022-12-05T09:08:13.875Z,10.25
2022-12-05T09:10:41.420Z,10.82
2022-12-05T09:13:08.923Z,13.45
2022-12-05T09:15:39.325Z,11.20
2022-12-05T09:18:06.885Z,13.45
2022-12-05T09:20:34.332Z,14.55
2022-12-05T09:23:03.169Z,12.15
2022-12-05T09:25:30.648Z,14.48
2022-12-05T09:27:58.507Z,19.38
2022-12-05T09:30:25.960Z,13.68
2022-12-05T09:32:53.445Z,15.25
2022-12-05T09:35:21.611Z,12.02
2022-12-05T09:37:49.126Z,13.82
2022-12-05T09:40:19.501Z,16.85
2022-12-05T09:42:59.596Z,15.70
2022-12-05T09:45:31.167Z,16.08
2022-12-05T09:48:02.196Z,17.38
2022-12-05T09:50:31.439Z,13.13
2022-12-05T09:53:14.750Z,13.85
2022-12-05T09:55:50.641Z,15.98
2022-12-05T09:58:23.919Z,12.57
2022-12-05T10:00:55.798Z,13.93
2022-12-05T10:03:30.273Z,11.93
2022-12-05T10:06:10.844Z,16.67
2022-12-05T10:08:49.499Z,13.98
2022-12-05T10:11:24.137Z,15.02
2022-12-05T10:13:59.780Z,13.27
2022-12-05T10:16:33.410Z,15.50
2022-12-05T10:19:06.462Z,14.20
2022-12-05T10:21:38.664Z,15.07
2022-12-05T10:24:14.088Z,11.77
2022-12-05T10:29:24.751Z,13.75
2022-12-05T10:31:58.043Z,13.25
2022-12-05T10:34:32.751Z,16.13
2022-12-05T10:37:09.145Z,12.77
2022-12-05T10:39:37.446Z,12.90
2022-12-05T10:42:08.791Z,13.35
2022-12-05T10:44:37.325Z,17.00
2022-12-05T10:47:04.885Z,13.77
2022-12-05T10:49:33.938Z,14.02
2022-12-05T10:52:02.252Z,13.63
2022-12-05T10:54:31.936Z,14.88
2022-12-05T10:56:59.740Z,14.02
2022-12-05T10:59:46.907Z,18.10
2022-12-05T11:02:23.019Z,14.27
2022-12-05T11:04:50.827Z,13.38
2022-12-05T11:07:27.625Z,17.27
2022-12-05T11:09:55.673Z,18.60
2022-12-05T11:12:25.345Z,18.95
2022-12-05T11:15:04.517Z,12.98
2022-12-05T11:17:35.103Z,17.23
2022-12-05T11:20:03.346Z,14.40
2022-12-05T11:22:36.509Z,14.05
2022-12-05T11:25:29.859Z,14.00
2022-12-05T11:28:01.182Z,12.70
2022-12-05T11:30:30.741Z,12.45
2022-12-05T11:33:13.470Z,14.43
2022-12-05T11:35:41.665Z,17.17
2022-12-05T11:38:12.781Z,13.65
2022-12-05T11:40:54.426Z,13.60
2022-12-05T11:43:43.761Z,12.10
2022-12-05T11:46:26.480Z,18.10
2022-12-05T11:49:13.856Z,17.77
2022-12-05T11:51:45.073Z,16.75
2022-12-05T11:55:04.636Z,15.50
2022-12-05T11:57:52.723Z,14.63
2022-12-05T12:00:24.389Z,17.45
2022-12-05T12:03:32.577Z,13.05
2022-12-05T12:06:16.822Z,13.85
2022-12-05T12:08:57.641Z,15.07
2022-12-05T12:11:32.406Z,13.13
2022-12-05T12:14:10.793Z,12.68
2022-12-05T12:16:46.941Z,13.48
2022-12-05T12:19:30.059Z,13.98
2022-12-05T12:22:13.376Z,11.52
2022-12-05T12:25:02.517Z,10.07
2022-12-05T12:27:42.212Z,13.88
2022-12-05T12:30:16.487Z,15.45
2022-12-05T12:32:57.106Z,16.35
2022-12-05T12:35:30.623Z,16.80
2022-12-05T12:38:10.036Z,12.85
2022-12-05T12:40:47.314Z,13.48
2022-12-05T12:43:52.564Z,14.52
2022-12-05T12:46:23.317Z,12.48
2022-12-05T12:49:17.987Z,11.20
2022-12-05T12:51:52.512Z,12.43
2022-12-05T12:55:03.448Z,10.47
2022-12-05T12:57:42.488Z,13.98
2022-12-05T13:00:19.463Z,13.88
2022-12-05T13:02:53.221Z,15.10
2022-12-05T13:05:28.536Z,15.80
2022-12-05T13:08:00.795Z,13.50
2022-12-05T13:10:34.755Z,12.70
2022-12-05T13:13:04.855Z,11.57
2022-12-05T13:15:37.148Z,9.63
2022-12-05T13:18:08.421Z,10.77
2022-12-05T13:20:37.285Z,10.68
2022-12-05T13:23:08.424Z,11.80
2022-12-05T13:25:40.016Z,13.48
2022-12-05T13:28:25.889Z,13.35
2022-12-05T13:31:02.457Z,13.02
2022-12-05T13:33:36.868Z,12.30
2022-12-05T13:36:27.252Z,15.55
2022-12-05T13:39:22.276Z,12.75
2022-12-05T13:42:09.842Z,12.68
2022-12-05T13:44:41.561Z,13.60
2022-12-05T13:47:24.785Z,15.10
2022-12-05T13:49:57.607Z,12.88
2022-12-05T13:52:29.908Z,15.82
2022-12-05T13:55:03.880Z,11.18
2022-12-05T13:57:53.158Z,12.98
2022-12-05T14:00:31.100Z,9.50
2022-12-05T14:03:17.181Z,14.02
2022-12-05T14:05:54.614Z,11.35
2022-12-05T14:08:52.323Z,12.65
2022-12-05T14:11:20.050Z,12.15
2022-12-05T14:13:47.768Z,13.27
2022-12-05T14:16:53.091Z,14.43
2022-12-05T14:19:47.365Z,15.48
2022-12-05T14:22:43.966Z,12.48
2022-12-05T14:25:24.869Z,12.52
2022-12-05T14:28:01.583Z,15.25
2022-12-05T14:30:42.725Z,14.63
2022-12-05T14:33:16.287Z,16.40
2022-12-05T14:35:48.190Z,13.68
2022-12-05T14:38:24.691Z,15.43
2022-12-05T14:40:52.385Z,12.57
2022-12-05T14:43:23.165Z,15.23
2022-12-05T14:46:00.243Z,15.68
2022-12-05T14:48:31.209Z,21.70
2022-12-05T14:51:00.025Z,31.23
2022-12-05T14:53:32.894Z,25.00
2022-12-05T14:56:07.757Z,22.65
2022-12-05T14:58:38.396Z,19.20
2022-12-05T15:01:09.991Z,20.52
2022-12-05T15:03:41.928Z,18.42
2022-12-05T15:06:15.756Z,16.00
2022-12-05T15:08:48.583Z,16.90
2022-12-05T15:11:28.294Z,15.07
2022-12-05T15:14:01.577Z,15.15
2022-12-05T15:16:30.246Z,12.98
2022-12-05T15:19:01.764Z,14.55
2022-12-05T15:21:34.412Z,11.10
2022-12-05T15:24:05.550Z,12.25
2022-12-05T15:26:48.313Z,13.18
2022-12-05T15:29:18.260Z,11.73
2022-12-05T15:31:47.888Z,11.77
2022-12-05T15:34:19.609Z,13.00
2022-12-05T15:36:51.517Z,11.80
2022-12-05T15:39:28.421Z,11.77
2022-12-05T15:41:57.948Z,14.15
2022-12-05T15:44:34.398Z,10.05
2022-12-05T15:47:05.125Z,10.32
2022-12-05T15:49:32.659Z,11.48
2022-12-05T15:52:11.082Z,10.43
2022-12-05T15:54:40.947Z,14.73
2022-12-05T15:57:13.459Z,13.48
2022-12-05T15:59:46.938Z,11.07
2022-12-05T16:02:20.995Z,12.50
2022-12-05T16:04:52.686Z,13.88
2022-12-05T16:07:22.581Z,11.50
2022-12-05T16:09:51.913Z,12.85
2022-12-05T16:12:25.871Z,11.98
2022-12-05T16:15:01.047Z,12.13
2022-12-05T16:17:30.978Z,12.63
2022-12-05T16:20:12.404Z,12.00
2022-12-05T16:22:44.973Z,12.75
2022-12-05T16:25:17.563Z,11.13
2022-12-05T16:27:57.588Z,13.68
2022-12-05T16:30:26.058Z,10.23
2022-12-05T16:33:01.537Z,10.13
2022-12-05T16:38:11.846Z,11.23
2022-12-05T16:40:42.223Z,11.77
2022-12-05T16:43:20.396Z,9.90
2022-12-05T16:45:49.586Z,12.98
2022-12-05T16:48:21.760Z,15.57
2022-12-05T16:50:51.046Z,13.07
2022-12-05T16:53:22.590Z,12.05
2022-12-05T16:55:51.452Z,13.80
2022-12-05T16:58:23.315Z,12.45
2022-12-05T17:00:52.234Z,12.30
2022-12-05T17:03:34.542Z,10.80
2022-12-05T17:06:02.717Z,10.40
2022-12-05T17:08:30.234Z,11.15
2022-12-05T17:11:01.316Z,11.60
2022-12-05T17:13:29.179Z,10.65
2022-12-05T17:15:56.769Z,11.10
2022-12-05T17:18:30.932Z,10.88
2022-12-05T17:21:02.240Z,11.32
2022-12-05T17:23:29.748Z,11.23
2022-12-05T17:26:00.049Z,11.45
2022-12-05T17:28:27.502Z,12.35
2022-12-05T17:30:54.968Z,14.60
2022-12-05T17:33:22.411Z,13.07
2022-12-05T17:35:50.919Z,10.75
2022-12-05T17:38:18.607Z,8.88
2022-12-05T17:40:46.771Z,9.35
2022-12-05T17:43:19.914Z,9.85
2022-12-05T17:45:50.690Z,12.85
2022-12-05T17:48:18.145Z,11.90
2022-12-05T17:50:47.592Z,13.73
2022-12-05T17:53:17.127Z,11.55
2022-12-05T17:55:48.010Z,11.18
2022-12-05T17:58:17.517Z,10.25
2022-12-05T18:00:46.495Z,8.23
2022-12-05T18:03:16.321Z,10.63
2022-12-05T18:05:44.543Z,9.02
2022-12-05T18:08:13.203Z,10.43
2022-12-05T18:10:42.735Z,11.43
2022-12-05T18:13:10.716Z,9.98
2022-12-05T18:15:43.031Z,10.23
2022-12-05T18:18:14.432Z,12.40
2022-12-05T18:20:41.871Z,12.20
2022-12-05T18:23:09.652Z,18.20
2022-12-05T18:25:37.269Z,13.82
2022-12-05T18:28:04.824Z,10.93
2022-12-05T18:30:32.303Z,10.63
2022-12-05T18:33:01.136Z,10.05
2022-12-05T18:35:41.084Z,10.55
2022-12-05T18:38:08.838Z,17.67
2022-12-05T18:40:36.314Z,13.55
2022-12-05T18:43:04.325Z,12.90
2022-12-05T18:45:31.901Z,12.32
2022-12-05T18:48:22.942Z,13.02
2022-12-05T18:50:48.390Z,13.68
2022-12-05T18:53:15.895Z,13.43
2022-12-05T18:56:13.016Z,14.07
2022-12-05T18:58:30.844Z,17.95
2022-12-05T19:01:04.996Z,15.75
2022-12-05T19:03:34.824Z,15.27
2022-12-05T19:06:02.784Z,13.50
2022-12-05T19:08:30.301Z,13.80
2022-12-05T19:10:57.829Z,14.90
2022-12-05T19:13:25.341Z,13.63
2022-12-05T19:15:52.824Z,15.18
2022-12-05T19:18:20.279Z,12.10
2022-12-05T19:20:52.767Z,11.82
2022-12-05T19:23:20.228Z,11.85
2022-12-05T19:25:47.756Z,12.57
2022-12-05T19:28:15.475Z,11.35
2022-12-05T19:30:42.987Z,10.82
2022-12-05T19:33:10.510Z,10.80
2022-12-05T19:35:38.298Z,9.88
2022-12-05T19:38:07.096Z,12.13
2022-12-05T19:40:34.628Z,11.90
2022-12-05T19:43:04.185Z,10.88
2022-12-05T19:45:31.707Z,10.20
2022-12-05T19:47:59.182Z,10.93
2022-12-05T19:50:26.656Z,11.02
2022-12-05T19:52:54.174Z,12.52
2022-12-05T19:55:22.994Z,12.73
2022-12-05T19:57:50.495Z,13.52
2022-12-05T20:00:19.745Z,15.40
2022-12-05T20:02:50.232Z,12.55
2022-12-05T20:05:18.076Z,12.50
2022-12-05T20:07:45.638Z,15.48
2022-12-05T20:10:13.206Z,13.15
2022-12-05T20:12:42.092Z,12.70
2022-12-05T20:15:10.386Z,13.73
2022-12-05T20:17:37.936Z,13.73
2022-12-05T20:20:06.451Z,15.95
2022-12-05T20:22:34.012Z,19.52
2022-12-05T20:25:01.849Z,14.30
2022-12-05T20:27:29.423Z,13.27
2022-12-05T20:29:58.510Z,14.15
2022-12-05T20:32:26.297Z,15.48
2022-12-05T20:34:54.029Z,12.25
2022-12-05T20:37:22.789Z,13.20
2022-12-05T20:39:51.002Z,14.85
2022-12-05T20:42:18.614Z,15.10
2022-12-05T20:44:46.146Z,14.32
2022-12-05T20:47:14.986Z,14.85
2022-12-05T20:49:42.469Z,13.63
2022-12-05T20:52:09.948Z,13.27
2022-12-05T20:54:37.435Z,12.35
2022-12-05T20:57:04.924Z,16.00
2022-12-05T20:59:32.390Z,15.07
2022-12-05T21:01:59.946Z,13.18
2022-12-05T21:04:29.005Z,18.75
2022-12-05T21:06:57.373Z,14.95
2022-12-05T21:09:28.497Z,16.52
2022-12-05T21:11:56.644Z,17.40
2022-12-05T21:14:24.637Z,16.52
2022-12-05T21:16:53.081Z,11.25
2022-12-05T21:19:20.748Z,12.15
2022-12-05T21:21:49.560Z,9.90
2022-12-05T21:24:17.058Z,17.55
2022-12-05T21:26:44.537Z,13.95
2022-12-05T21:29:12.005Z,11.48
2022-12-05T21:31:42.063Z,11.20
2022-12-05T21:34:14.892Z,9.43
2022-12-05T21:36:43.383Z,10.80
2022-12-05T21:39:13.047Z,14.07
2022-12-05T21:41:40.684Z,9.75
2022-12-05T21:44:08.521Z,11.85
2022-12-05T21:46:36.093Z,9.98
2022-12-05T21:49:03.633Z,10.18
2022-12-05T21:51:31.850Z,9.15
2022-12-05T21:53:59.352Z,10.38
2022-12-05T21:56:28.667Z,11.60
2022-12-05T21:58:56.236Z,11.68
2022-12-05T22:01:25.728Z,10.65
2022-12-05T22:03:54.160Z,10.35
2022-12-05T22:06:21.915Z,9.43
2022-12-05T22:08:49.815Z,10.02
2022-12-05T22:11:19.129Z,9.25
2022-12-05T22:13:49.014Z,9.60
2022-12-05T22:16:17.189Z,10.60
2022-12-05T22:18:44.890Z,9.32
2022-12-05T22:21:14.354Z,9.68
2022-12-05T22:23:42.405Z,10.52
2022-12-05T22:26:12.428Z,12.35
2022-12-05T22:28:40.250Z,13.73
2022-12-05T22:31:12.389Z,9.68
2022-12-05T22:33:40.454Z,8.55
2022-12-05T22:36:09.831Z,11.10
2022-12-05T22:38:39.158Z,10.95
2022-12-05T22:41:08.500Z,9.38
2022-12-05T22:43:38.205Z,12.27
2022-12-05T22:46:07.249Z,8.90
2022-12-05T22:48:36.703Z,10.13
2022-12-05T22:51:05.981Z,10.00
2022-12-05T22:53:33.504Z,8.50
2022-12-05T22:56:05.920Z,10.38
2022-12-05T22:58:33.738Z,9.90
2022-12-05T23:01:09.863Z,11.07
2022-12-05T23:03:38.900Z,11.93
2022-12-05T23:06:11.461Z,9.07
2022-12-05T23:08:40.941Z,12.07
2022-12-05T23:11:09.171Z,13.57
2022-12-05T23:13:37.567Z,12.30
2022-12-05T23:16:09.849Z,12.02
2022-12-05T23:18:47.466Z,10.40
2022-12-05T23:21:17.348Z,10.25
2022-12-05T23:23:45.361Z,9.95
2022-12-05T23:26:14.077Z,9.95
2022-12-05T23:28:42.051Z,12.75
2022-12-05T23:31:10.953Z,9.32
2022-12-05T23:33:40.224Z,13.02
2022-12-05T23:36:09.912Z,12.02
2022-12-05T23:38:37.816Z,10.95
2022-12-05T23:41:07.853Z,9.07
2022-12-05T23:43:36.702Z,9.38
2022-12-05T23:46:05.466Z,8.82
2022-12-05T23:48:33.526Z,9.35
2022-12-05T23:51:04.448Z,8.57
2022-12-05T23:53:34.604Z,8.55
2022-12-05T23:56:02.675Z,9.30
2022-12-05T23:58:31.524Z,8.30
